Time;durP1;ratioP1;P1;durP2;ratioP2;P2;SDS_P1;SDS_P2;PMS_P1;PMS_P2;Temp;Humidity;BMP_temperature;BMP_pressure;BME280_temperature;BME280_humidity;BME280_pressure;Samples;Min_cycle;Max_cycle;Signal;HPM_P1;HPM_P2
2021/12/18 00:00:44;;;;;;;7.80;2.50;;;;;;;3.73;82.67;101937.16;87454;1287;87258;-62
2021/12/18 00:02:53;;;;;;;9.20;2.50;;;;;;;3.70;82.70;101943.92;87459;1288;95744;-62
2021/12/18 00:05:02;;;;;;;8.40;2.40;;;;;;;3.67;82.67;101948.60;87464;1286;80433;-62
2021/12/18 00:07:12;;;;;;;8.10;2.90;;;;;;;3.65;82.82;101956.09;87431;1288;80223;-63
2021/12/18 00:09:28;;;;;;;7.60;2.60;;;;;;;3.68;82.74;101953.37;87435;1288;98352;-63
2021/12/18 00:11:38;;;;;;;6.30;2.30;;;;;;;3.69;82.80;101941.02;87478;1286;87890;-62
2021/12/18 00:13:50;;;;;;;8.40;3.20;;;;;;;3.71;82.74;101933.89;87459;1286;95369;-61
2021/12/18 00:16:02;;;;;;;8.50;3.10;;;;;;;3.72;82.82;101934.73;87489;1286;78100;-62
2021/12/18 00:18:12;;;;;;;8.30;2.40;;;;;;;3.71;82.90;101928.17;87511;1288;79600;-65
2021/12/18 00:20:24;;;;;;;9.50;2.80;;;;;;;3.70;83.04;101926.66;87470;1292;96081;-64
2021/12/18 00:22:33;;;;;;;10.50;2.80;;;;;;;3.74;82.92;101923.87;87488;1291;88870;-63
2021/12/18 00:24:42;;;;;;;7.90;2.50;;;;;;;3.74;82.94;101921.73;87460;1288;94938;-63
2021/12/18 00:26:54;;;;;;;9.10;3.30;;;;;;;3.73;83.10;101927.16;87471;1287;80023;-63
2021/12/18 00:29:04;;;;;;;7.90;2.80;;;;;;;3.75;83.02;101940.55;87475;1291;82627;-63
2021/12/18 00:31:17;;;;;;;7.30;2.70;;;;;;;3.75;83.06;101947.34;87487;1286;97772;-64
2021/12/18 00:33:26;;;;;;;9.20;3.40;;;;;;;3.75;83.15;101943.08;87489;1286;89553;-64
2021/12/18 00:35:35;;;;;;;9.60;3.00;;;;;;;3.74;83.03;101950.80;87423;1288;93561;-64
2021/12/18 00:37:45;;;;;;;8.10;2.60;;;;;;;3.77;83.13;101959.70;87486;1287;76230;-64
2021/12/18 00:39:58;;;;;;;9.10;2.80;;;;;;;3.72;83.10;101961.44;87508;1286;81531;-64
2021/12/18 00:42:20;;;;;;;11.70;3.20;;;;;;;3.70;83.05;101964.95;87498;1291;96067;-64
2021/12/18 00:44:32;;;;;;;8.00;2.50;;;;;;;3.69;82.92;101964.69;87249;1292;89390;-65
2021/12/18 00:46:47;;;;;;;7.60;2.70;;;;;;;3.64;82.96;101967.02;87466;1286;93706;-63
2021/12/18 00:48:59;;;;;;;8.10;2.90;;;;;;;3.60;82.88;101965.35;87451;1286;80153;-63
2021/12/18 00:51:08;;;;;;;8.90;2.80;;;;;;;3.57;83.01;101970.00;87479;1288;81576;-64
2021/12/18 00:53:18;;;;;;;8.00;2.80;;;;;;;3.50;82.97;101984.02;87497;1285;96141;-63
2021/12/18 00:55:28;;;;;;;7.30;2.60;;;;;;;3.48;83.08;101988.42;87465;1287;89125;-64
2021/12/18 00:57:37;;;;;;;9.60;3.00;;;;;;;3.49;83.02;101984.98;87444;1288;94510;-64
2021/12/18 00:59:52;;;;;;;8.40;2.60;;;;;;;3.46;83.10;101974.69;87730;1288;78433;-64
2021/12/18 01:02:01;;;;;;;7.80;3.10;;;;;;;3.41;82.95;101973.60;87741;1290;81093;-64
2021/12/18 01:04:10;;;;;;;10.50;3.30;;;;;;;3.33;82.95;101969.55;87729;1288;98165;-65
2021/12/18 01:06:24;;;;;;;7.10;3.20;;;;;;;3.28;83.06;101969.34;87741;1284;87654;-64
2021/12/18 01:08:36;;;;;;;8.00;2.50;;;;;;;3.26;82.98;101965.91;87776;1287;93526;-63
2021/12/18 01:11:05;;;;;;;9.30;4.20;;;;;;;3.24;83.05;101970.32;87721;1284;81635;-64
2021/12/18 01:13:21;;;;;;;8.80;3.10;;;;;;;3.22;82.99;101981.35;87805;1288;83315;-64
2021/12/18 01:15:36;;;;;;;8.50;3.10;;;;;;;3.21;83.14;101985.85;87736;1287;97545;-63
2021/12/18 01:22:47;;;;;;;8.70;3.20;;;;;;;3.18;83.13;101966.13;87765;1285;77185;-64
2021/12/18 01:24:57;;;;;;;9.00;3.30;;;;;;;3.17;83.12;101964.39;87726;1288;81774;-63
2021/12/18 01:27:07;;;;;;;10.40;3.50;;;;;;;3.06;83.05;101968.54;87781;1288;97366;-63
2021/12/18 01:29:15;;;;;;;9.70;3.30;;;;;;;3.01;83.08;101975.44;87770;1285;86871;-62
2021/12/18 01:31:25;;;;;;;9.30;3.60;;;;;;;2.92;82.99;101971.93;87728;1288;95803;-62
2021/12/18 01:33:36;;;;;;;9.90;3.60;;;;;;;2.78;83.00;101976.09;87723;1285;81210;-62
2021/12/18 01:35:46;;;;;;;10.60;4.50;;;;;;;2.69;83.03;101967.79;87753;1285;82031;-64
2021/12/18 01:37:59;;;;;;;7.40;3.50;;;;;;;2.62;83.14;101970.91;87721;1288;96164;-62
2021/12/18 01:40:08;;;;;;;;;;;;;;;2.55;83.01;101978.34;87773;1285;87762;-62
2021/12/18 01:44:57;;;;;;;7.70;3.80;;;;;;;2.33;83.11;101989.72;87700;1288;78131;-63
2021/12/18 01:51:15;;;;;;;9.30;4.10;;;;;;;2.28;83.21;101998.23;87777;1288;82649;-64
2021/12/18 01:52:32;;;;;;;11.70;4.90;;;;;;;2.04;83.05;101997.31;87199;1294;87727;-63
2021/12/18 01:54:43;;;;;;;9.90;4.20;;;;;;;1.95;83.32;101996.42;87166;1291;95738;-63
2021/12/18 01:56:52;;;;;;;12.40;5.00;;;;;;;1.89;83.30;101994.32;87218;1288;81503;-63
2021/12/18 01:59:05;;;;;;;12.10;4.10;;;;;;;1.84;83.49;102002.95;87762;1284;82304;-65
2021/12/18 02:01:15;;;;;;;10.00;3.80;;;;;;;1.76;83.44;102007.00;87736;1283;96759;-63
2021/12/18 02:03:25;;;;;;;13.00;5.20;;;;;;;1.68;83.44;102007.48;87750;1288;88748;-63
2021/12/18 02:05:37;;;;;;;12.70;4.50;;;;;;;1.60;83.52;101991.62;87754;1288;94859;-63
2021/12/18 02:07:47;;;;;;;9.60;4.20;;;;;;;1.60;83.49;101994.48;87745;1284;79513;-63
2021/12/18 02:10:04;;;;;;;10.20;4.80;;;;;;;1.58;83.59;101990.73;87759;1288;81063;-63
2021/12/18 02:12:19;;;;;;;12.00;5.20;;;;;;;1.51;83.60;101987.96;87732;1288;97471;-62
2021/12/18 02:19:34;;;;;;;12.40;5.20;;;;;;;1.40;83.43;101995.74;87493;1288;88608;-63
2021/12/18 02:19:59;;;;;;;12.90;4.80;;;;;;;1.17;83.67;101983.06;87198;1290;77553;-63
2021/12/18 02:22:09;;;;;;;8.90;3.80;;;;;;;1.02;83.60;101978.29;87237;1293;82470;-65
2021/12/18 02:24:25;;;;;;;12.40;4.60;;;;;;;0.92;83.73;101974.64;87198;1283;96581;-63
2021/12/18 02:26:34;;;;;;;10.40;3.70;;;;;;;0.86;83.83;101978.00;87205;1290;89468;-63
2021/12/18 02:28:48;;;;;;;10.00;3.90;;;;;;;0.81;84.03;101989.33;87227;1289;91921;-63
2021/12/18 02:31:00;;;;;;;9.10;3.90;;;;;;;0.78;83.89;101996.74;87204;1289;79393;-63
2021/12/18 02:33:14;;;;;;;9.90;4.30;;;;;;;0.70;83.99;101988.89;87244;1292;80817;-63
2021/12/18 02:35:35;;;;;;;11.80;4.00;;;;;;;0.59;84.11;101983.10;87173;1289;98139;-62
2021/12/18 02:37:45;;;;;;;11.20;4.30;;;;;;;0.55;84.04;101976.92;87313;1288;87540;-63
2021/12/18 02:42:25;;;;;;;9.30;3.70;;;;;;;0.52;84.24;101976.08;87201;1293;76566;-64
2021/12/18 02:44:39;;;;;;;;;;;;;;;0.51;84.40;101969.22;87227;1294;80941;-64
2021/12/18 02:46:48;;;;;;;10.40;4.00;;;;;;;0.47;84.12;101976.36;87250;1292;99544;-63
2021/12/18 02:49:06;;;;;;;7.90;3.00;;;;;;;0.37;84.08;101983.28;87223;1291;87636;-63
2021/12/18 02:51:17;;;;;;;9.10;3.40;;;;;;;0.31;84.13;101982.79;87214;1288;95064;-63
2021/12/18 02:53:31;;;;;;;9.80;3.70;;;;;;;0.27;84.16;101980.14;87216;1290;78139;-63
2021/12/18 02:55:40;;;;;;;10.10;3.80;;;;;;;0.25;84.32;101984.90;87748;1289;83460;-63
2021/12/18 02:57:52;;;;;;;9.10;3.30;;;;;;;0.29;84.42;101986.59;87726;1288;99387;-63
2021/12/18 03:00:02;;;;;;;9.50;3.40;;;;;;;0.36;84.73;101990.45;87742;1283;88165;-62
2021/12/18 03:02:11;;;;;;;8.40;3.40;;;;;;;0.44;84.79;101993.37;87734;1284;94224;-62
2021/12/18 03:04:25;;;;;;;8.70;3.40;;;;;;;0.56;84.94;101994.82;87745;1284;79553;-63
2021/12/18 03:06:37;;;;;;;9.00;3.90;;;;;;;0.67;84.96;101992.05;87704;1284;82881;-63
2021/12/18 03:08:53;;;;;;;9.60;4.70;;;;;;;0.82;85.07;101995.82;87714;1288;98911;-63
2021/12/18 03:25:45;;;;;;;9.70;4.10;;;;;;;1.44;85.44;101959.27;87568;1289;94963;-63
2021/12/18 03:27:55;;;;;;;8.20;3.00;;;;;;;1.49;85.41;101950.25;87725;1287;79062;-63
2021/12/18 03:30:12;;;;;;;12.60;4.00;;;;;;;1.54;85.35;101950.50;87731;1290;82510;-64
2021/12/18 03:32:21;;;;;;;8.90;3.70;;;;;;;1.60;85.44;101946.71;87765;1291;97664;-64
2021/12/18 03:34:30;;;;;;;10.40;3.60;;;;;;;1.67;85.51;101953.20;87753;1284;87796;-62
2021/12/18 03:36:39;;;;;;;6.90;3.20;;;;;;;1.73;85.53;101954.08;87696;1290;94924;-63
2021/12/18 03:38:51;;;;;;;11.40;3.60;;;;;;;1.79;85.39;101958.49;87702;1288;77304;-65
2021/12/18 03:41:01;;;;;;;12.10;4.30;;;;;;;1.87;85.49;101962.83;87751;1288;80888;-64
2021/12/18 03:43:10;;;;;;;12.90;4.40;;;;;;;1.94;85.48;101966.81;87715;1285;98810;-65
2021/12/18 03:45:23;;;;;;;12.60;4.40;;;;;;;1.94;85.42;101968.92;87704;1285;88763;-64
2021/12/18 03:47:33;;;;;;;10.80;4.30;;;;;;;1.97;85.46;101978.70;87752;1289;94248;-62
2021/12/18 03:49:42;;;;;;;9.20;4.10;;;;;;;1.98;85.36;101983.43;87702;1285;78604;-63
2021/12/18 03:51:54;;;;;;;7.40;4.50;;;;;;;1.98;85.45;101983.08;87425;1288;82423;-62
2021/12/18 03:54:03;;;;;;;10.10;3.90;;;;;;;1.99;85.31;101975.73;87723;1284;98140;-63
2021/12/18 03:56:12;;;;;;;8.60;4.40;;;;;;;2.01;85.38;101971.70;87726;1285;88733;-63
2021/12/18 03:58:22;;;;;;;11.00;4.10;;;;;;;2.03;85.32;101976.54;87696;1289;95052;-63
2021/12/18 04:00:31;;;;;;;8.90;3.70;;;;;;;2.04;85.39;101973.64;87727;1289;78665;-63
2021/12/18 04:02:41;;;;;;;9.80;3.60;;;;;;;2.12;85.32;101977.55;87735;1290;81482;-64
2021/12/18 04:04:53;;;;;;;10.10;3.70;;;;;;;2.13;85.41;101978.75;87690;1288;98945;-62
2021/12/18 04:07:03;;;;;;;8.20;3.10;;;;;;;2.16;85.46;101972.33;87710;1280;89241;-63
2021/12/18 04:09:13;;;;;;;8.30;3.30;;;;;;;2.20;85.43;101973.84;87702;1285;94353;-63
2021/12/18 04:11:22;;;;;;;10.20;4.40;;;;;;;2.21;85.45;101978.04;87735;1291;77902;-64
2021/12/18 04:13:31;;;;;;;9.40;4.30;;;;;;;2.28;85.41;101980.27;87729;1288;82697;-64
2021/12/18 04:15:41;;;;;;;9.40;4.00;;;;;;;2.33;85.37;101985.66;87755;1289;96762;-64
2021/12/18 04:17:51;;;;;;;11.90;5.30;;;;;;;2.30;85.18;101985.11;87747;1284;87094;-63
2021/12/18 04:20:00;;;;;;;10.10;3.60;;;;;;;2.28;85.21;101980.23;87725;1287;94997;-64
2021/12/18 04:22:09;;;;;;;10.40;3.60;;;;;;;2.27;85.19;101976.98;87692;1284;79851;-65
2021/12/18 04:24:21;;;;;;;9.10;3.90;;;;;;;2.24;85.18;101973.79;87716;1287;82389;-63
2021/12/18 04:26:34;;;;;;;10.20;4.90;;;;;;;2.27;85.34;101976.62;87475;1289;97827;-63
2021/12/18 04:28:43;;;;;;;9.00;3.70;;;;;;;2.27;85.28;101976.09;87712;1288;87123;-64
2021/12/18 04:30:53;;;;;;;9.00;3.50;;;;;;;2.30;85.27;101975.49;87711;1290;94483;-64
2021/12/18 04:33:03;;;;;;;8.30;4.00;;;;;;;2.32;85.36;101972.19;87692;1289;80267;-63
2021/12/18 04:35:12;;;;;;;8.60;3.60;;;;;;;2.33;85.39;101967.31;87700;1287;83067;-64
2021/12/18 04:37:23;;;;;;;12.20;4.10;;;;;;;2.34;85.45;101963.67;87695;1283;97757;-63
2021/12/18 04:39:32;;;;;;;10.60;4.20;;;;;;;2.38;85.56;101966.30;87495;1289;87254;-64
2021/12/18 04:41:43;;;;;;;7.30;3.90;;;;;;;2.41;85.40;101966.24;87756;1285;93531;-64
2021/12/18 04:43:53;;;;;;;11.00;4.10;;;;;;;2.43;85.46;101969.89;87705;1287;76696;-64
2021/12/18 04:46:03;;;;;;;10.90;4.60;;;;;;;2.45;85.42;101963.20;87748;1283;79441;-62
2021/12/18 04:48:12;;;;;;;10.80;4.90;;;;;;;2.45;85.38;101959.44;87722;1279;98377;-62
2021/12/18 04:50:21;;;;;;;12.60;4.30;;;;;;;2.42;85.33;101955.52;87709;1284;87333;-64
2021/12/18 04:52:30;;;;;;;13.80;4.10;;;;;;;2.40;85.43;101949.81;87720;1284;94960;-64
2021/12/18 04:54:44;;;;;;;10.50;4.50;;;;;;;2.39;85.42;101948.08;87719;1291;80777;-64
2021/12/18 04:56:57;;;;;;;10.10;3.70;;;;;;;2.40;85.38;101950.86;87708;1285;82155;-63
2021/12/18 04:59:11;;;;;;;9.60;3.90;;;;;;;2.41;85.24;101951.86;87728;1287;98946;-64
2021/12/18 05:01:20;;;;;;;8.50;3.90;;;;;;;2.44;85.20;101952.05;87751;1287;87507;-62
2021/12/18 05:03:30;;;;;;;11.20;4.10;;;;;;;2.44;85.39;101951.52;87722;1282;92993;-63
2021/12/18 05:05:40;;;;;;;11.30;4.60;;;;;;;2.45;85.43;101952.48;87714;1287;81008;-63
2021/12/18 05:07:52;;;;;;;9.00;4.30;;;;;;;2.48;85.40;101954.13;87731;1287;82639;-63
2021/12/18 05:10:02;;;;;;;8.20;3.10;;;;;;;2.49;85.38;101952.23;87719;1287;98407;-64
2021/12/18 05:12:13;;;;;;;8.10;3.50;;;;;;;2.52;85.39;101949.58;87725;1284;89445;-64
2021/12/18 05:14:22;;;;;;;9.80;4.20;;;;;;;2.57;85.46;101946.56;87724;1291;95118;-64
2021/12/18 05:16:34;;;;;;;12.80;3.70;;;;;;;2.62;85.47;101941.27;87705;1284;78224;-63
2021/12/18 05:18:43;;;;;;;9.70;4.30;;;;;;;2.67;85.48;101941.45;87740;1286;79562;-62
2021/12/18 05:20:52;;;;;;;10.00;3.70;;;;;;;2.69;85.41;101941.33;87688;1288;99015;-63
2021/12/18 05:23:01;;;;;;;8.20;3.60;;;;;;;2.72;85.38;101938.81;87716;1288;88556;-63
2021/12/18 05:25:12;;;;;;;11.50;4.80;;;;;;;2.74;85.31;101939.56;87716;1287;95707;-63
2021/12/18 05:27:21;;;;;;;9.40;4.50;;;;;;;2.76;85.27;101932.13;87762;1287;79149;-63
2021/12/18 05:29:30;;;;;;;9.70;4.40;;;;;;;2.77;85.24;101925.79;87714;1288;81040;-63
2021/12/18 05:31:39;;;;;;;8.30;3.90;;;;;;;2.76;85.18;101921.45;87715;1283;97456;-63
2021/12/18 05:33:52;;;;;;;10.60;4.50;;;;;;;2.74;85.21;101927.23;87684;1287;88927;-63
2021/12/18 05:36:03;;;;;;;11.60;4.30;;;;;;;2.73;85.16;101932.66;87695;1289;94689;-63
2021/12/18 05:38:15;;;;;;;10.80;3.90;;;;;;;2.70;85.08;101942.83;87684;1287;80256;-63
2021/12/18 05:40:26;;;;;;;10.20;4.40;;;;;;;2.69;85.14;101935.41;87729;1283;81691;-63
2021/12/18 05:42:38;;;;;;;11.20;4.30;;;;;;;2.71;85.23;101938.48;87702;1283;98848;-63
2021/12/18 05:44:47;;;;;;;12.90;4.80;;;;;;;2.75;85.29;101946.23;87708;1287;87026;-63
2021/12/18 05:47:00;;;;;;;8.90;3.80;;;;;;;2.76;85.22;101948.10;87709;1287;94030;-63
2021/12/18 05:49:09;;;;;;;9.30;3.70;;;;;;;2.78;85.13;101950.81;87471;1287;79119;-64
2021/12/18 05:51:24;;;;;;;10.90;4.20;;;;;;;2.78;85.20;101940.48;87690;1284;83294;-64
2021/12/18 05:53:33;;;;;;;12.20;3.60;;;;;;;2.81;85.27;101940.29;87698;1283;97199;-64
2021/12/18 05:55:42;;;;;;;7.10;3.60;;;;;;;2.80;85.26;101942.33;87730;1291;89882;-63
2021/12/18 05:57:51;;;;;;;13.00;4.00;;;;;;;2.84;85.16;101940.29;87696;1289;95297;-63
2021/12/18 06:00:00;;;;;;;9.10;4.00;;;;;;;2.87;85.09;101946.27;87730;1286;79578;-63
2021/12/18 06:02:13;;;;;;;8.80;3.60;;;;;;;2.92;85.19;101950.77;87742;1283;83119;-62
2021/12/18 06:04:21;;;;;;;7.90;3.60;;;;;;;2.95;85.08;101947.35;87694;1290;98436;-63
2021/12/18 06:06:34;;;;;;;8.50;4.40;;;;;;;2.93;85.12;101943.05;87699;1284;88079;-63
2021/12/18 06:08:43;;;;;;;9.20;3.80;;;;;;;2.95;85.11;101945.23;87713;1284;94655;-63
2021/12/18 06:10:55;;;;;;;7.60;3.60;;;;;;;2.97;85.07;101944.20;87728;1287;77323;-63
2021/12/18 06:13:05;;;;;;;10.10;4.30;;;;;;;2.97;84.99;101938.52;87731;1287;81750;-63
2021/12/18 06:15:17;;;;;;;8.90;3.60;;;;;;;2.96;85.03;101936.07;87697;1287;99395;-63
2021/12/18 06:17:31;;;;;;;13.50;4.90;;;;;;;2.93;85.04;101932.75;87702;1284;88325;-63
2021/12/18 06:19:43;;;;;;;10.30;4.20;;;;;;;2.87;84.99;101936.33;87697;1286;95326;-63
2021/12/18 06:21:53;;;;;;;11.40;4.20;;;;;;;2.85;84.94;101934.00;87658;1283;80007;-63
2021/12/18 06:24:02;;;;;;;7.60;3.00;;;;;;;2.86;84.96;101929.46;87680;1287;82571;-63
2021/12/18 06:26:11;;;;;;;6.60;3.20;;;;;;;2.89;84.94;101926.61;87692;1283;99080;-63
2021/12/18 06:28:21;;;;;;;6.80;3.50;;;;;;;2.92;84.95;101928.17;87730;1287;89313;-63
2021/12/18 06:30:29;;;;;;;9.50;3.20;;;;;;;2.94;85.06;101934.63;87715;1286;95773;-64
2021/12/18 06:32:38;;;;;;;9.00;3.40;;;;;;;2.94;85.09;101939.08;87661;1283;78788;-63
2021/12/18 06:34:51;;;;;;;9.20;3.70;;;;;;;2.98;85.16;101942.19;87715;1286;81560;-63
2021/12/18 06:37:00;;;;;;;8.40;3.60;;;;;;;3.03;85.03;101940.27;87682;1284;99037;-64
2021/12/18 06:39:10;;;;;;;8.50;3.80;;;;;;;3.06;84.92;101942.20;87688;1285;88929;-63
2021/12/18 06:41:19;;;;;;;11.30;3.90;;;;;;;3.08;84.99;101938.68;87688;1287;94971;-63
2021/12/18 06:43:32;;;;;;;10.60;4.50;;;;;;;3.11;84.93;101933.34;87714;1284;79314;-63
2021/12/18 06:45:41;;;;;;;9.20;3.40;;;;;;;3.14;84.92;101929.55;87631;1286;80516;-63
2021/12/18 06:47:50;;;;;;;6.80;3.60;;;;;;;3.14;84.91;101926.84;87495;1287;315044;-63
2021/12/18 06:50:00;;;;;;;11.60;4.30;;;;;;;3.15;84.76;101927.55;87729;1284;89594;-63
2021/12/18 06:52:10;;;;;;;9.20;3.90;;;;;;;3.13;84.82;101926.23;87732;1283;95199;-63
2021/12/18 06:54:19;;;;;;;9.70;3.80;;;;;;;3.03;84.84;101923.95;87701;1287;77290;-63
2021/12/18 06:56:29;;;;;;;8.80;3.90;;;;;;;2.97;84.75;101925.02;87674;1288;83073;-63
2021/12/18 06:58:38;;;;;;;8.00;4.00;;;;;;;2.95;84.83;101924.73;87690;1284;97567;-63
2021/12/18 07:00:53;;;;;;;9.60;4.80;;;;;;;2.96;84.79;101918.30;87705;1287;88170;-64
2021/12/18 07:03:05;;;;;;;11.70;6.10;;;;;;;2.97;84.83;101917.34;87694;1287;95327;-63
2021/12/18 07:05:16;;;;;;;13.80;5.80;;;;;;;2.96;84.80;101914.93;87694;1283;82031;-64
2021/12/18 07:07:27;;;;;;;14.00;6.30;;;;;;;2.98;85.00;101910.13;87736;1285;82984;-63
2021/12/18 07:09:40;;;;;;;9.30;4.80;;;;;;;2.99;84.82;101908.28;87665;1283;98963;-63
2021/12/18 07:11:52;;;;;;;17.10;6.40;;;;;;;3.01;84.79;101902.48;87715;1287;86122;-63
2021/12/18 07:14:04;;;;;;;10.60;5.90;;;;;;;3.05;84.92;101901.66;87723;1287;95316;-64
2021/12/18 07:16:18;;;;;;;9.40;5.30;;;;;;;3.06;84.78;101895.95;87521;1288;79211;-62
2021/12/18 07:18:26;;;;;;;7.80;4.50;;;;;;;3.07;84.91;101892.84;87687;1283;82276;-63
2021/12/18 07:20:38;;;;;;;14.40;5.80;;;;;;;3.05;84.85;101892.05;87708;1285;97476;-63
2021/12/18 07:22:47;;;;;;;11.00;6.00;;;;;;;3.09;84.97;101886.64;87699;1286;89014;-63
2021/12/18 07:24:59;;;;;;;14.70;8.30;;;;;;;3.04;84.81;101896.77;87669;1283;95782;-63
2021/12/18 07:27:11;;;;;;;18.80;9.80;;;;;;;3.03;84.91;101902.56;87681;1287;79881;-63
2021/12/18 07:29:23;;;;;;;11.00;6.00;;;;;;;3.02;84.91;101905.46;87714;1285;81165;-64
2021/12/18 07:31:32;;;;;;;16.70;7.80;;;;;;;2.94;84.90;101899.39;87721;1285;98386;-65
2021/12/18 07:33:43;;;;;;;13.10;7.00;;;;;;;2.94;84.97;101895.80;87648;1286;88217;-64
2021/12/18 07:35:52;;;;;;;19.80;8.90;;;;;;;2.98;84.97;101900.70;87662;1285;96108;-63
2021/12/18 07:38:01;;;;;;;21.20;9.60;;;;;;;3.03;84.97;101908.63;87654;1288;80550;-63
2021/12/18 07:58:22;;;;;;;28.90;15.60;;;;;;;3.19;84.39;101925.60;84425;1322;613899;-61
2021/12/18 08:00:32;;;;;;;23.10;12.80;;;;;;;3.16;84.29;101929.05;86927;1295;79310;-62
2021/12/18 08:02:42;;;;;;;59.50;26.90;;;;;;;3.10;84.53;101929.11;86843;1292;393555;-65
2021/12/18 08:04:51;;;;;;;78.70;32.80;;;;;;;3.11;84.60;101926.51;87129;1292;96854;-61
2021/12/18 08:07:01;;;;;;;27.60;15.20;;;;;;;3.13;84.68;101920.70;87092;1291;90345;-62
2021/12/18 08:09:10;;;;;;;19.00;10.80;;;;;;;3.13;84.76;101914.84;87144;1288;94887;-61
2021/12/18 08:11:19;;;;;;;14.70;9.30;;;;;;;3.18;84.84;101922.00;87123;1291;79903;-62
2021/12/18 08:13:29;;;;;;;15.40;9.70;;;;;;;3.20;84.76;101928.96;87290;1279;82858;-62
2021/12/18 08:15:38;;;;;;;17.20;9.80;;;;;;;3.08;84.88;101929.59;87130;1291;95700;-62
2021/12/18 08:17:50;;;;;;;17.30;9.50;;;;;;;3.06;84.94;101931.87;86969;1292;88019;-62
2021/12/18 08:22:09;;;;;;;17.10;10.90;;;;;;;3.09;85.15;101927.05;86835;1294;80783;-62
2021/12/18 08:24:18;;;;;;;19.10;11.00;;;;;;;3.13;85.03;101919.31;86738;1294;83094;-61
2021/12/18 08:26:27;;;;;;;16.50;10.90;;;;;;;3.19;84.89;101917.81;86812;1298;97275;-62
2021/12/18 08:28:36;;;;;;;17.90;11.80;;;;;;;3.15;84.83;101912.52;86870;1298;87744;-65
2021/12/18 08:30:49;;;;;;;18.80;11.30;;;;;;;3.17;84.98;101910.47;86814;1298;94470;-62
2021/12/18 08:32:59;;;;;;;20.30;11.70;;;;;;;3.22;84.96;101904.99;86838;1289;77868;-61
2021/12/18 08:35:12;;;;;;;31.10;15.60;;;;;;;3.19;84.98;101899.84;86902;1295;80847;-62
2021/12/18 08:37:20;;;;;;;;;;;;;;;3.21;85.00;101893.95;87282;1291;97967;-65
2021/12/18 08:39:30;;;;;;;40.40;19.40;;;;;;;3.25;85.02;101894.60;87473;1286;88661;-65
2021/12/18 08:41:39;;;;;;;77.20;31.90;;;;;;;3.25;85.01;101895.86;87482;1288;94852;-63
2021/12/18 08:43:49;;;;;;;33.90;16.50;;;;;;;3.26;84.97;101896.48;87470;1290;78402;-62
2021/12/18 08:46:01;;;;;;;81.40;34.10;;;;;;;3.28;85.07;101896.90;87529;1288;83317;-62
2021/12/18 08:48:12;;;;;;;31.20;16.00;;;;;;;3.31;85.08;101893.61;87465;1286;98812;-62
2021/12/18 08:50:23;;;;;;;17.60;12.30;;;;;;;3.28;85.15;101891.18;87496;1286;85693;-62
2021/12/18 08:52:36;;;;;;;22.20;12.80;;;;;;;3.28;85.10;101886.55;87478;1285;93762;-61
2021/12/18 08:54:46;;;;;;;19.50;12.50;;;;;;;3.31;85.12;101880.67;87482;1288;80470;-62
2021/12/18 08:56:55;;;;;;;25.40;13.80;;;;;;;3.34;85.16;101876.19;87493;1291;81516;-64
2021/12/18 08:59:05;;;;;;;46.20;25.50;;;;;;;3.38;84.98;101867.10;87481;1282;96814;-64
2021/12/18 09:01:15;;;;;;;31.50;16.30;;;;;;;3.41;84.95;101862.09;87482;1287;89054;-62
2021/12/18 09:03:24;;;;;;;20.50;13.40;;;;;;;3.45;84.81;101855.27;87247;1291;95356;-62
2021/12/18 09:05:34;;;;;;;18.70;12.90;;;;;;;3.44;84.86;101848.04;87480;1286;78100;-64
2021/12/18 09:07:47;;;;;;;23.90;13.90;;;;;;;3.42;84.90;101848.88;87474;1286;80490;-65
2021/12/18 09:09:56;;;;;;;29.10;14.50;;;;;;;3.43;84.74;101850.44;87496;1286;97153;-65
2021/12/18 09:12:06;;;;;;;27.00;15.10;;;;;;;3.44;84.75;101847.11;87495;1288;86790;-65
2021/12/18 09:14:18;;;;;;;30.50;14.70;;;;;;;3.43;84.74;101845.41;87489;1287;96095;-64
2021/12/18 09:16:28;;;;;;;26.10;14.00;;;;;;;3.44;84.88;101843.69;87447;1288;81625;-66
2021/12/18 09:18:38;;;;;;;22.70;13.00;;;;;;;3.50;84.97;101827.27;87504;1288;82042;-65
2021/12/18 09:20:47;;;;;;;28.20;13.30;;;;;;;3.54;84.85;101822.72;87662;1281;97904;-65
2021/12/18 09:23:00;;;;;;;27.70;13.60;;;;;;;3.58;85.14;101820.82;87619;1284;88494;-67
2021/12/18 09:25:13;;;;;;;28.80;14.20;;;;;;;3.66;85.03;101818.83;87644;1284;94434;-62
2021/12/18 09:27:23;;;;;;;23.80;14.10;;;;;;;3.73;85.07;101813.70;87809;1262;79980;-63
2021/12/18 09:29:33;;;;;;;27.00;14.40;;;;;;;3.66;85.20;101807.58;87775;1285;83099;-64
2021/12/18 09:31:47;;;;;;;27.10;14.50;;;;;;;3.70;85.07;101798.62;87773;1285;98294;-62
2021/12/18 09:33:56;;;;;;;28.50;14.50;;;;;;;3.75;85.09;101795.93;88041;1261;88564;-66
2021/12/18 09:36:06;;;;;;;27.00;14.80;;;;;;;3.76;85.24;101801.67;87849;1282;94371;-64
2021/12/18 09:38:19;;;;;;;27.40;16.80;;;;;;;3.85;85.19;101811.19;87766;1283;81522;-63
2021/12/18 09:40:29;;;;;;;31.50;17.20;;;;;;;3.91;85.05;101816.05;87747;1284;82111;-63
2021/12/18 09:42:42;;;;;;;22.10;12.80;;;;;;;3.90;85.04;101813.48;87716;1285;98846;-65
2021/12/18 09:44:52;;;;;;;21.90;11.70;;;;;;;3.90;84.91;101813.31;87749;1288;87335;-68
2021/12/18 09:47:04;;;;;;;21.50;12.40;;;;;;;3.86;84.95;101810.92;87721;1285;95653;-65
2021/12/18 09:49:16;;;;;;;22.00;13.60;;;;;;;3.82;84.81;101813.53;87769;1285;78492;-62
2021/12/18 09:51:27;;;;;;;29.90;16.80;;;;;;;3.73;84.87;101804.63;87767;1285;82428;-61
2021/12/18 09:53:37;;;;;;;22.90;15.20;;;;;;;3.68;84.96;101796.27;87758;1285;98264;-62
2021/12/18 09:55:49;;;;;;;20.80;13.00;;;;;;;3.66;84.82;101789.77;87753;1284;88346;-61
2021/12/18 09:58:02;;;;;;;20.60;12.60;;;;;;;3.65;84.87;101783.80;87912;1261;93464;-64
2021/12/18 10:00:17;;;;;;;20.40;12.90;;;;;;;3.64;84.86;101787.30;87872;1285;79380;-61
2021/12/18 10:02:27;;;;;;;21.40;12.40;;;;;;;3.64;84.89;101784.75;87951;1264;82184;-63
2021/12/18 10:04:39;;;;;;;21.40;12.90;;;;;;;3.59;84.82;101783.88;87785;1287;97332;-63
2021/12/18 10:06:50;;;;;;;21.60;12.20;;;;;;;3.62;84.75;101775.35;87838;1285;88251;-65
2021/12/18 10:09:00;;;;;;;21.50;13.90;;;;;;;3.64;84.93;101769.62;87761;1276;93443;-65
2021/12/18 10:11:17;;;;;;;19.70;13.20;;;;;;;3.66;85.01;101771.95;87757;1285;79829;-65
2021/12/18 10:13:27;;;;;;;25.50;17.20;;;;;;;3.67;84.95;101772.13;87743;1285;81493;-64
2021/12/18 10:15:37;;;;;;;21.90;15.40;;;;;;;3.70;85.06;101764.23;87755;1283;97770;-62
2021/12/18 10:17:47;;;;;;;23.70;13.70;;;;;;;3.69;85.20;101761.98;87753;1277;87887;-61
2021/12/18 10:20:16;;;;;;;18.90;13.00;;;;;;;3.72;85.13;101756.04;87717;1289;93534;-63
2021/12/18 10:22:28;;;;;;;25.30;14.40;;;;;;;3.70;85.10;101751.00;87742;1285;79883;-64
2021/12/18 10:24:43;;;;;;;23.50;13.50;;;;;;;3.75;84.96;101747.42;87763;1283;80916;-65
2021/12/18 10:26:53;;;;;;;21.80;14.10;;;;;;;3.75;84.99;101742.83;87737;1283;96684;-62
2021/12/18 10:29:08;;;;;;;23.80;14.20;;;;;;;3.76;85.03;101741.11;87769;1285;89009;-61
2021/12/18 10:31:42;;;;;;;21.60;14.10;;;;;;;3.76;85.02;101737.21;87736;1284;94293;-63
2021/12/18 10:34:13;;;;;;;23.80;15.40;;;;;;;3.75;85.01;101728.71;87745;1284;78883;-62
2021/12/18 10:36:26;;;;;;;23.10;15.90;;;;;;;3.74;85.07;101727.41;87794;1285;79935;-62
2021/12/18 10:38:47;;;;;;;28.30;18.10;;;;;;;3.73;85.15;101724.06;87759;1287;97844;-62
2021/12/18 10:40:57;;;;;;;37.40;21.10;;;;;;;3.70;85.04;101716.61;87759;1287;89043;-63
2021/12/18 10:43:11;;;;;;;37.60;20.80;;;;;;;3.69;85.05;101719.05;87732;1282;94651;-62
2021/12/18 10:45:27;;;;;;;48.20;25.70;;;;;;;3.62;85.19;101717.08;87752;1288;80884;-62
2021/12/18 10:47:57;;;;;;;30.30;18.20;;;;;;;3.63;85.10;101710.58;87787;1289;82560;-64
2021/12/18 10:50:19;;;;;;;36.50;20.10;;;;;;;3.64;85.06;101701.24;87754;1288;97571;-63
2021/12/18 10:52:41;;;;;;;36.20;19.30;;;;;;;3.64;84.97;101697.70;87776;1289;87547;-63
2021/12/18 10:55:07;;;;;;;36.40;18.60;;;;;;;3.63;85.10;101686.88;87760;1282;94535;-61
2021/12/18 10:57:27;;;;;;;28.70;18.40;;;;;;;3.60;85.01;101682.10;87781;1285;78606;-63
2021/12/18 10:59:48;;;;;;;34.10;18.50;;;;;;;3.52;85.17;101677.51;87747;1285;81573;-63
2021/12/18 11:02:01;;;;;;;33.70;18.40;;;;;;;3.57;85.11;101669.66;87747;1285;96304;-62
2021/12/18 11:04:23;;;;;;;27.70;17.30;;;;;;;3.56;85.12;101673.14;87749;1285;87576;-62